Time;durP1;ratioP1;P1;durP2;ratioP2;P2;SDS_P1;SDS_P2;PMS_P1;PMS_P2;Temp;Humidity;BMP_temperature;BMP_pressure;BME280_temperature;BME280_humidity;BME280_pressure;Samples;Min_cycle;Max_cycle;Signal;HPM_P1;HPM_P2
2022/06/01 00:01:29;;;;;;;28.17;24.13;;;;;;;9.44;95.12;101303.38;4935530;29;20023;-85
2022/06/01 00:03:54;;;;;;;26.42;23.92;;;;;;;9.41;94.73;101299.16;4958800;28;20434;-85
2022/06/01 00:06:20;;;;;;;28.60;25.90;;;;;;;9.40;95.32;101292.22;4940905;29;20090;-85
2022/06/01 00:08:45;;;;;;;29.38;26.38;;;;;;;9.38;95.31;101301.97;4935717;29;20038;-84
2022/06/01 00:11:11;;;;;;;30.77;27.77;;;;;;;9.41;95.58;101303.56;4934002;28;20038;-85
2022/06/01 00:13:37;;;;;;;28.80;25.90;;;;;;;9.39;95.49;101301.03;4923433;29;20023;-84
2022/06/01 00:16:02;;;;;;;28.60;25.88;;;;;;;9.32;95.29;101293.63;4925642;29;20086;-84
2022/06/01 00:18:31;;;;;;;28.83;26.13;;;;;;;9.30;95.57;101301.59;4955706;28;20028;-84
2022/06/01 00:20:56;;;;;;;30.75;27.85;;;;;;;9.31;95.62;101305.91;4927760;28;20024;-84
2022/06/01 00:23:22;;;;;;;30.30;27.42;;;;;;;9.27;95.65;101301.78;4933983;28;20055;-84
2022/06/01 00:25:47;;;;;;;30.70;27.70;;;;;;;9.27;95.26;101303.56;4930790;29;20027;-84
2022/06/01 00:28:13;;;;;;;32.05;28.95;;;;;;;9.29;96.07;101302.53;4933910;29;20042;-84
2022/06/01 00:30:39;;;;;;;31.83;28.63;;;;;;;9.28;95.81;101297.38;4945977;29;20019;-84
2022/06/01 00:33:05;;;;;;;33.60;30.38;;;;;;;9.25;96.26;101303.66;4934742;29;20059;-84
2022/06/01 00:35:31;;;;;;;33.83;30.45;;;;;;;9.29;96.58;101304.31;4943942;29;20046;-84
2022/06/01 00:37:56;;;;;;;34.08;30.48;;;;;;;9.30;96.45;101306.84;4952977;29;20035;-84
2022/06/01 00:40:24;;;;;;;33.05;29.95;;;;;;;9.33;96.45;101308.44;4935005;29;20042;-84
2022/06/01 00:42:57;;;;;;;32.70;29.58;;;;;;;9.33;96.28;101309.28;4933946;28;20505;-84
2022/06/01 00:45:24;;;;;;;33.00;29.90;;;;;;;9.34;95.85;101308.34;4929450;29;20034;-84
2022/06/01 00:47:50;;;;;;;33.92;30.63;;;;;;;9.30;96.03;101296.34;4935579;29;20387;-84
2022/06/01 00:50:22;;;;;;;34.47;31.08;;;;;;;9.30;95.99;101298.97;4935544;29;20039;-84
2022/06/01 00:53:15;;;;;;;32.22;29.10;;;;;;;9.29;95.57;101304.31;4935141;29;20304;-84
2022/06/01 00:55:47;;;;;;;32.20;29.20;;;;;;;9.28;95.68;101298.22;4924932;29;20032;-84
2022/06/01 00:58:27;;;;;;;33.92;30.55;;;;;;;9.26;95.63;101304.50;4942074;29;20035;-84
2022/06/01 01:00:55;;;;;;;34.92;31.50;;;;;;;9.24;96.21;101295.88;4928539;29;20032;-84
2022/06/01 01:03:23;;;;;;;33.20;30.00;;;;;;;9.19;95.75;101297.91;4933870;29;20101;-84
2022/06/01 01:06:17;;;;;;;32.72;29.52;;;;;;;9.23;95.80;101302.91;4934713;29;20425;-84
2022/06/01 01:08:44;;;;;;;34.78;31.38;;;;;;;9.17;95.92;101294.53;4910202;29;20502;-84
2022/06/01 01:11:12;;;;;;;33.10;30.05;;;;;;;9.15;96.19;101305.13;4946940;29;20031;-84
2022/06/01 01:13:41;;;;;;;33.13;29.95;;;;;;;9.16;96.17;101298.94;4938955;29;20386;-84
2022/06/01 01:16:07;;;;;;;33.28;30.02;;;;;;;9.16;96.03;101304.19;4944655;28;20134;-84
2022/06/01 01:18:39;;;;;;;35.88;32.40;;;;;;;9.15;96.04;101305.13;4948116;28;20474;-85
2022/06/01 01:21:14;;;;;;;34.47;31.27;;;;;;;9.20;96.13;101300.44;4927336;29;20397;-84
2022/06/01 01:23:51;;;;;;;34.15;30.77;;;;;;;9.18;96.56;101297.06;4946619;28;20035;-84
2022/06/01 01:26:17;;;;;;;36.00;32.42;;;;;;;9.21;96.63;101289.03;4949020;28;20109;-84
2022/06/01 01:28:43;;;;;;;35.65;32.35;;;;;;;9.19;96.55;101297.91;4944901;28;20047;-84
2022/06/01 01:31:17;;;;;;;36.28;32.70;;;;;;;9.21;97.18;101294.28;4949524;28;20109;-84
2022/06/01 01:33:44;;;;;;;34.85;31.55;;;;;;;9.20;96.61;101289.09;4941723;29;20035;-84
2022/06/01 01:36:12;;;;;;;36.38;32.67;;;;;;;9.15;96.23;101285.91;4933745;29;20035;-84
2022/06/01 01:38:52;;;;;;;36.10;32.60;;;;;;;9.14;96.45;101285.06;4950193;29;20019;-84
2022/06/01 01:41:36;;;;;;;35.05;31.75;;;;;;;9.15;96.41;101285.91;4950876;29;20023;-84
2022/06/01 01:44:09;;;;;;;36.40;32.78;;;;;;;9.12;96.30;101292.19;4938786;29;20110;-84
2022/06/01 01:46:34;;;;;;;;;;;;;;;9.22;94.47;101293.34;4943644;29;20027;-84
2022/06/01 01:49:02;;;;;;;37.47;33.67;;;;;;;9.14;95.89;101295.56;4933288;29;19989;-84
2022/06/01 01:51:30;;;;;;;38.05;34.13;;;;;;;9.09;96.11;101301.13;4944225;29;20058;-84
2022/06/01 01:53:59;;;;;;;36.38;32.88;;;;;;;9.12;96.24;101300.06;4950512;28;20027;-84
2022/06/01 01:56:50;;;;;;;38.33;34.40;;;;;;;9.15;96.42;101297.25;4950865;29;20114;-84
2022/06/01 01:59:34;;;;;;;39.63;35.92;;;;;;;9.12;96.18;101302.69;4929513;29;20130;-84
2022/06/01 02:02:12;;;;;;;38.78;35.00;;;;;;;9.10;96.09;101299.31;4943183;29;20038;-84
2022/06/01 02:07:54;;;;;;;39.10;35.33;;;;;;;9.07;95.61;101302.13;4939704;29;20062;-84
2022/06/01 02:13:04;;;;;;;39.13;35.15;;;;;;;9.01;95.76;101298.09;4940318;29;20046;-84
2022/06/01 02:15:41;;;;;;;39.28;35.40;;;;;;;8.98;96.18;101295.66;4946684;29;20474;-84
2022/06/01 02:18:12;;;;;;;39.72;35.72;;;;;;;8.92;95.71;101296.03;4943539;28;20031;-84
2022/06/01 02:20:42;;;;;;;40.65;36.65;;;;;;;8.91;95.91;101296.13;4930143;29;20031;-84
2022/06/01 02:23:13;;;;;;;40.58;36.60;;;;;;;8.89;95.58;101296.22;4945483;28;20035;-84
2022/06/01 02:25:40;;;;;;;40.85;36.75;;;;;;;8.84;96.12;101298.28;4938593;28;20058;-84
2022/06/01 02:28:06;;;;;;;40.10;36.20;;;;;;;8.84;95.83;101302.69;4923754;29;20030;-84
2022/06/01 02:30:36;;;;;;;39.67;35.78;;;;;;;8.86;95.65;101300.81;4931898;28;20020;-84
2022/06/01 02:33:04;;;;;;;41.38;37.22;;;;;;;8.82;95.96;101307.19;4942732;28;20046;-84
2022/06/01 02:35:34;;;;;;;41.63;37.42;;;;;;;8.76;96.08;101301.34;4942718;28;20031;-84
2022/06/01 02:38:01;;;;;;;41.22;37.13;;;;;;;8.75;96.03;101299.66;4931133;28;20031;-84
2022/06/01 02:40:28;;;;;;;39.97;36.03;;;;;;;8.75;96.01;101299.66;4926027;29;20493;-84
2022/06/01 02:42:54;;;;;;;41.58;37.35;;;;;;;8.66;95.61;101294.94;4929734;29;20130;-84
2022/06/01 02:45:25;;;;;;;40.63;36.65;;;;;;;8.63;95.89;101294.28;4927610;29;20126;-84
2022/06/01 02:47:54;;;;;;;40.25;36.50;;;;;;;8.62;95.95;101288.19;4947384;28;20035;-83
2022/06/01 02:50:24;;;;;;;40.30;36.17;;;;;;;8.56;96.08;101291.19;4924134;29;20491;-84
2022/06/01 02:52:49;;;;;;;39.45;35.60;;;;;;;8.58;95.86;101289.31;4929533;29;20106;-84
2022/06/01 02:55:16;;;;;;;39.88;35.90;;;;;;;8.54;95.70;101295.69;4927345;29;20026;-84
2022/06/01 02:57:43;;;;;;;38.65;34.78;;;;;;;8.46;95.50;101287.41;4945984;28;20054;-84
2022/06/01 03:00:17;;;;;;;39.22;35.22;;;;;;;8.45;95.83;101293.59;4944191;28;20504;-84
2022/06/01 03:02:44;;;;;;;39.20;35.40;;;;;;;8.40;95.95;101287.75;4949785;28;20034;-84
2022/06/01 03:05:09;;;;;;;39.50;35.50;;;;;;;8.39;96.00;101289.53;4939227;28;20027;-84
2022/06/01 03:07:35;;;;;;;38.75;34.85;;;;;;;8.41;96.19;101286.84;4933522;28;20440;-84
2022/06/01 03:10:00;;;;;;;38.40;34.60;;;;;;;8.39;95.99;101293.94;4945354;28;20031;-84
2022/06/01 03:12:26;;;;;;;39.97;35.85;;;;;;;8.35;96.22;101292.41;4928590;29;20481;-84
2022/06/01 03:14:51;;;;;;;38.03;34.15;;;;;;;8.33;95.97;101289.00;4943101;28;20035;-84
2022/06/01 03:17:16;;;;;;;39.15;35.13;;;;;;;8.27;95.97;101291.97;4943294;28;20446;-84
2022/06/01 03:19:42;;;;;;;37.78;34.08;;;;;;;8.31;96.07;101293.50;4930035;28;20040;-84
2022/06/01 03:22:07;;;;;;;37.25;33.70;;;;;;;8.28;95.93;101296.28;4945122;28;20027;-84
2022/06/01 03:24:32;;;;;;;37.00;33.40;;;;;;;8.27;95.66;101294.59;4939591;29;20015;-84
2022/06/01 03:26:58;;;;;;;37.15;33.47;;;;;;;8.27;96.20;101297.22;4948114;29;20027;-84
2022/06/01 03:29:24;;;;;;;37.30;33.58;;;;;;;8.22;96.13;101284.38;4949417;29;20486;-84
2022/06/01 03:31:51;;;;;;;37.28;33.50;;;;;;;8.17;96.22;101284.66;4932679;29;20050;-84
2022/06/01 03:34:17;;;;;;;35.53;32.00;;;;;;;8.20;96.35;101290.66;4938180;29;20054;-84
2022/06/01 03:36:42;;;;;;;34.80;31.38;;;;;;;8.19;96.44;101292.44;4943612;29;20023;-84
2022/06/01 03:39:07;;;;;;;36.30;32.40;;;;;;;8.16;96.56;101290.81;4947757;28;20023;-84
2022/06/01 03:41:33;;;;;;;33.75;30.48;;;;;;;8.16;96.36;101287.34;4924758;29;20119;-84
2022/06/01 03:46:42;;;;;;;33.88;30.23;;;;;;;8.12;96.77;101284.06;4946676;29;20054;-85
2022/06/01 03:49:07;;;;;;;35.10;31.20;;;;;;;8.18;96.92;101293.34;4948369;29;20133;-84
2022/06/01 03:51:33;;;;;;;32.10;28.90;;;;;;;8.15;96.45;101291.75;4938582;29;20110;-84
2022/06/01 03:53:58;;;;;;;32.67;29.38;;;;;;;8.11;95.97;101302.50;4919757;28;20038;-84
2022/06/01 03:56:24;;;;;;;32.88;29.38;;;;;;;8.14;96.44;101297.94;4924437;29;20087;-84
2022/06/01 03:58:50;;;;;;;31.75;28.42;;;;;;;8.16;96.25;101303.94;4932506;29;20035;-84
2022/06/01 04:01:16;;;;;;;34.13;28.73;;;;;;;8.22;96.37;101307.13;4933017;29;20061;-85
2022/06/01 04:03:42;;;;;;;32.25;28.98;;;;;;;8.59;97.42;101298.03;4944532;28;20031;-84
2022/06/01 04:06:07;;;;;;;27.08;24.50;;;;;;;9.33;93.39;101306.66;4929568;29;20031;-84
2022/06/01 04:08:32;;;;;;;25.63;22.60;;;;;;;9.49;90.77;101305.69;4940811;29;20047;-84
2022/06/01 04:10:58;;;;;;;25.10;22.65;;;;;;;9.60;90.13;101306.72;4930197;29;20054;-84
2022/06/01 04:13:25;;;;;;;24.98;22.48;;;;;;;9.52;89.69;101310.75;4937247;28;20024;-84
2022/06/01 04:15:51;;;;;;;24.40;21.90;;;;;;;9.49;88.68;101305.69;4931418;29;20393;-84
2022/06/01 04:18:16;;;;;;;23.88;21.30;;;;;;;9.56;89.32;101307.00;4932146;29;20027;-84
2022/06/01 04:20:43;;;;;;;24.02;21.52;;;;;;;9.54;88.99;101307.09;4959416;28;20041;-84
2022/06/01 04:23:08;;;;;;;23.10;20.80;;;;;;;9.50;89.24;101312.66;4950131;28;20065;-84
2022/06/01 04:25:34;;;;;;;24.38;21.33;;;;;;;9.37;89.69;101312.56;4939505;28;20058;-85
2022/06/01 04:28:00;;;;;;;24.48;21.75;;;;;;;9.14;90.64;101311.31;4957073;28;20032;-85
2022/06/01 04:30:25;;;;;;;25.98;22.20;;;;;;;9.11;91.37;101306.25;4931684;28;20023;-85
2022/06/01 04:32:53;;;;;;;24.40;21.98;;;;;;;9.17;91.38;101311.13;4934604;29;20058;-84
2022/06/01 04:35:20;;;;;;;25.15;22.65;;;;;;;9.01;91.87;101310.38;4946085;28;20106;-84
2022/06/01 04:37:46;;;;;;;25.75;23.05;;;;;;;9.05;92.15;101312.72;4937292;28;20031;-84
2022/06/01 04:40:17;;;;;;;25.05;22.42;;;;;;;9.03;92.59;101319.00;4947844;28;20453;-85
2022/06/01 04:42:42;;;;;;;24.83;21.98;;;;;;;8.94;92.47;101320.41;4946116;28;20035;-85
2022/06/01 04:45:12;;;;;;;26.00;22.15;;;;;;;9.02;93.28;101322.56;4926034;29;20024;-85
2022/06/01 04:47:38;;;;;;;24.17;21.55;;;;;;;8.95;93.40;101318.63;4946006;28;20038;-85
2022/06/01 04:50:05;;;;;;;27.00;22.17;;;;;;;8.83;93.22;101327.25;4934548;29;20027;-85
2022/06/01 04:52:30;;;;;;;24.70;22.15;;;;;;;8.86;93.69;101327.06;4951824;28;20503;-84
2022/06/01 04:54:55;;;;;;;24.67;21.90;;;;;;;8.89;93.89;101321.63;4930537;28;20037;-85
2022/06/01 04:57:21;;;;;;;24.52;21.90;;;;;;;8.83;94.37;101327.25;4928411;29;20032;-84
2022/06/01 04:59:46;;;;;;;23.85;21.30;;;;;;;8.87;94.51;101334.84;4940223;28;20030;-84
2022/06/01 05:02:11;;;;;;;23.90;21.52;;;;;;;8.85;94.90;101334.09;4949519;28;20081;-84
2022/06/01 05:04:38;;;;;;;25.48;21.02;;;;;;;8.94;94.91;101336.16;4951721;28;20046;-84
2022/06/01 05:07:03;;;;;;;24.23;21.67;;;;;;;8.95;95.11;101329.97;4936573;29;20545;-84
2022/06/01 05:09:29;;;;;;;24.10;21.05;;;;;;;8.94;94.73;101330.06;4934863;29;20058;-84
2022/06/01 05:11:54;;;;;;;23.58;20.23;;;;;;;8.96;94.77;101326.41;4950217;28;20477;-85
2022/06/01 05:14:20;;;;;;;23.60;19.50;;;;;;;8.98;94.55;101327.16;4954319;28;20057;-85
2022/06/01 05:16:46;;;;;;;24.42;20.40;;;;;;;8.96;95.56;101320.31;4951438;28;20034;-86
2022/06/01 05:19:11;;;;;;;21.80;19.60;;;;;;;9.01;95.41;101321.72;4953451;28;20035;-85
2022/06/01 05:21:36;;;;;;;23.38;20.15;;;;;;;9.02;95.72;101328.66;4950042;28;20050;-85
2022/06/01 05:24:03;;;;;;;22.90;20.45;;;;;;;9.06;96.46;101329.31;4955687;28;20027;-85
2022/06/01 05:26:29;;;;;;;22.35;19.70;;;;;;;9.09;96.66;101323.88;4951188;28;20030;-84
2022/06/01 05:28:55;;;;;;;28.10;20.42;;;;;;;9.16;96.82;101329.59;4936077;29;20046;-85
2022/06/01 05:31:20;;;;;;;24.95;20.08;;;;;;;9.24;97.25;101327.41;4952583;28;20027;-85
2022/06/01 05:33:46;;;;;;;24.77;19.80;;;;;;;9.26;96.97;101328.97;4935474;29;20041;-85
2022/06/01 05:36:13;;;;;;;23.02;20.15;;;;;;;9.32;97.23;101331.22;4938368;28;20044;-85
2022/06/01 05:38:38;;;;;;;25.13;19.88;;;;;;;9.38;97.56;101322.13;4953644;28;20070;-85
2022/06/01 05:41:04;;;;;;;24.17;20.42;;;;;;;9.48;97.37;101322.41;4951539;28;20489;-85
2022/06/01 05:43:30;;;;;;;24.15;19.52;;;;;;;9.53;97.00;101328.22;4951375;28;20033;-85
2022/06/01 05:45:56;;;;;;;23.15;19.52;;;;;;;9.59;97.52;101323.41;4944559;28;20560;-85
2022/06/01 05:48:23;;;;;;;26.48;20.63;;;;;;;9.69;97.98;101340.31;4947414;28;20522;-85
2022/06/01 05:50:49;;;;;;;23.08;18.85;;;;;;;9.76;97.83;101322.38;4956580;28;20339;-86
2022/06/01 05:53:15;;;;;;;23.95;18.85;;;;;;;9.83;97.47;101325.47;4945967;28;20027;-86
2022/06/01 05:55:40;;;;;;;23.58;19.42;;;;;;;9.88;97.63;101332.13;4944197;28;20042;-85
2022/06/01 05:58:20;;;;;;;21.52;18.67;;;;;;;9.98;98.06;101340.25;4947685;28;20035;-86
2022/06/01 06:00:47;;;;;;;24.77;19.88;;;;;;;10.08;97.91;101336.13;4942848;28;20034;-86
2022/06/01 06:03:13;;;;;;;27.95;21.10;;;;;;;10.21;98.70;101333.56;4938773;28;20039;-85
2022/06/01 06:08:24;;;;;;;22.27;19.95;;;;;;;10.41;98.44;101330.50;4949202;28;20093;-85
2022/06/01 06:10:49;;;;;;;22.33;19.65;;;;;;;10.51;98.65;101326.31;4949050;28;20272;-85
2022/06/01 06:13:15;;;;;;;24.60;20.10;;;;;;;10.60;98.07;101330.97;4949925;28;20647;-85
2022/06/01 06:15:40;;;;;;;24.95;19.52;;;;;;;10.75;98.09;101333.50;4945590;28;20027;-85
2022/06/01 06:18:06;;;;;;;24.23;19.83;;;;;;;10.83;96.77;101331.22;4950344;28;20077;-85
2022/06/01 06:20:33;;;;;;;25.10;19.08;;;;;;;10.93;97.01;101327.03;4933021;29;21431;-85
2022/06/01 06:22:58;;;;;;;24.48;18.27;;;;;;;10.98;96.24;101341.56;4950136;28;20031;-85
2022/06/01 06:25:24;;;;;;;25.17;18.48;;;;;;;11.02;96.20;101338.72;4932637;29;20236;-86
2022/06/01 06:27:49;;;;;;;21.30;17.65;;;;;;;11.07;95.79;101345.34;4949265;28;20162;-85
2022/06/01 06:30:18;;;;;;;23.98;17.75;;;;;;;11.12;95.46;101345.88;4952062;28;20054;-85
2022/06/01 06:32:44;;;;;;;24.98;17.65;;;;;;;11.18;95.62;101350.72;4934770;29;20031;-85
2022/06/01 06:35:09;;;;;;;20.63;17.15;;;;;;;11.25;95.17;101354.66;4934669;29;20035;-85
2022/06/01 06:37:35;;;;;;;21.80;17.50;;;;;;;11.30;94.97;101365.72;4947189;28;20106;-85
2022/06/01 06:40:00;;;;;;;23.42;17.90;;;;;;;11.39;94.94;101366.88;4946621;28;20023;-86
2022/06/01 06:42:25;;;;;;;22.35;17.77;;;;;;;11.45;95.43;101373.50;4940781;28;20042;-86
2022/06/01 06:44:51;;;;;;;20.83;17.48;;;;;;;11.56;95.36;101373.59;4945175;28;20048;-85
2022/06/01 06:47:16;;;;;;;18.40;16.15;;;;;;;11.66;94.10;101381.72;4946745;28;20074;-85
2022/06/01 06:49:42;;;;;;;18.58;16.23;;;;;;;11.74;94.24;101380.22;4945136;28;20043;-85
2022/06/01 06:52:07;;;;;;;21.85;15.60;;;;;;;11.85;93.99;101382.13;4949706;28;20034;-85
2022/06/01 06:54:34;;;;;;;20.50;16.52;;;;;;;12.00;93.77;101385.47;4938363;28;20059;-84
2022/06/01 06:57:00;;;;;;;20.55;16.35;;;;;;;12.13;93.41;101379.22;4941661;28;20035;-85
2022/06/01 06:59:26;;;;;;;22.45;16.20;;;;;;;12.27;92.32;101385.28;4942103;29;20038;-85
2022/06/01 07:01:51;;;;;;;21.48;15.15;;;;;;;12.42;90.91;101385.03;4948732;29;20039;-85
2022/06/01 07:04:18;;;;;;;19.27;15.00;;;;;;;12.52;90.37;101386.03;4935150;29;20027;-85
2022/06/01 07:06:43;;;;;;;17.25;14.77;;;;;;;12.84;90.42;101390.75;4946713;28;20090;-84
2022/06/01 07:09:09;;;;;;;18.73;13.48;;;;;;;12.99;88.35;101380.81;4947650;28;20035;-84
2022/06/01 07:11:35;;;;;;;17.50;12.90;;;;;;;13.17;88.63;101390.84;4944953;28;20409;-84
2022/06/01 07:14:00;;;;;;;17.88;12.85;;;;;;;13.38;87.30;101382.25;4948059;28;20070;-84
2022/06/01 07:16:32;;;;;;;17.02;13.07;;;;;;;13.55;85.40;101392.34;4949510;28;20042;-84
2022/06/01 07:18:59;;;;;;;14.23;11.98;;;;;;;13.47;82.36;101389.47;4948315;28;20042;-84
2022/06/01 07:21:26;;;;;;;16.05;12.85;;;;;;;13.55;83.64;101395.00;4943972;28;20036;-84
2022/06/01 07:23:51;;;;;;;16.90;12.23;;;;;;;13.83;82.37;101384.91;4922614;29;20028;-85
2022/06/01 07:26:29;;;;;;;15.02;12.35;;;;;;;14.20;81.94;101396.88;4947622;28;20041;-86
2022/06/01 07:28:55;;;;;;;13.98;12.48;;;;;;;14.55;80.91;101399.38;4942538;28;20197;-87
2022/06/01 07:31:21;;;;;;;13.55;10.80;;;;;;;14.76;76.92;101391.44;4923797;29;20024;-87
2022/06/01 07:33:47;;;;;;;12.23;10.25;;;;;;;14.94;78.06;101387.28;4939135;28;20039;-87
2022/06/01 07:36:15;;;;;;;11.65;9.40;;;;;;;15.23;76.08;101391.94;4926492;29;20106;-86
2022/06/01 07:44:17;;;;;;;;;;;;;;;15.82;76.18;101381.50;4957719;28;20046;-87
2022/06/01 07:46:43;;;;;;;9.32;6.95;;;;;;;15.92;70.36;101386.84;4966770;28;19910;-87
2022/06/01 07:49:08;;;;;;;12.52;6.80;;;;;;;16.09;70.23;101380.91;4969363;28;20023;-87
2022/06/01 07:51:35;;;;;;;7.82;5.15;;;;;;;16.37;67.09;101383.72;4952386;28;20022;-87
2022/06/01 07:54:01;;;;;;;7.15;6.13;;;;;;;16.60;66.66;101385.16;4971496;28;20027;-87
2022/06/01 07:56:26;;;;;;;6.70;5.65;;;;;;;16.70;66.70;101391.34;4973243;28;20030;-87
2022/06/01 07:58:52;;;;;;;6.75;6.05;;;;;;;16.90;66.36;101382.41;4973026;28;20761;-86
2022/06/01 08:01:21;;;;;;;7.55;6.75;;;;;;;17.29;67.15;101387.66;4968421;28;20026;-87
2022/06/01 08:03:47;;;;;;;8.20;6.90;;;;;;;17.43;62.63;101384.53;4962322;28;20399;-86
2022/06/01 08:06:13;;;;;;;9.10;6.55;;;;;;;17.83;62.06;101380.78;4973144;28;20057;-87
2022/06/01 08:08:39;;;;;;;9.50;6.80;;;;;;;17.86;62.21;101385.81;4971401;28;20038;-86
2022/06/01 08:11:04;;;;;;;7.38;6.68;;;;;;;17.50;63.01;101392.78;4972982;28;20019;-86
2022/06/01 08:13:30;;;;;;;10.07;7.10;;;;;;;17.17;64.27;101392.28;4961187;28;20029;-87
2022/06/01 08:15:55;;;;;;;9.00;5.50;;;;;;;16.95;61.51;101379.31;4963032;28;20362;-86
2022/06/01 08:18:23;;;;;;;7.15;4.85;;;;;;;17.16;61.89;101389.78;4962842;28;20110;-86
2022/06/01 08:20:49;;;;;;;6.57;5.22;;;;;;;17.48;60.66;101394.75;4944834;29;20348;-86
2022/06/01 08:23:15;;;;;;;6.30;4.72;;;;;;;17.71;61.15;101397.94;4934192;29;20027;-86
2022/06/01 08:25:41;;;;;;;6.78;4.95;;;;;;;17.85;58.69;101389.44;4934130;29;20039;-87
2022/06/01 08:28:07;;;;;;;6.28;5.00;;;;;;;17.99;57.29;101382.78;4934810;29;20031;-87
2022/06/01 08:30:35;;;;;;;6.75;4.85;;;;;;;17.98;58.11;101392.59;4933608;29;20055;-87
2022/06/01 08:33:02;;;;;;;5.00;4.50;;;;;;;18.40;57.34;101378.75;4934684;29;20027;-87
2022/06/01 08:35:31;;;;;;;5.43;4.20;;;;;;;18.59;56.01;101375.13;4934913;28;20028;-87
2022/06/01 08:37:58;;;;;;;5.82;4.43;;;;;;;18.77;54.78;101366.13;4937244;29;20056;-87
2022/06/01 08:40:29;;;;;;;4.70;4.05;;;;;;;18.88;55.21;101364.25;4934312;29;20030;-87
2022/06/01 08:43:10;;;;;;;6.22;4.03;;;;;;;18.62;55.20;101365.00;4933204;29;20034;-86
2022/06/01 08:45:37;;;;;;;5.18;3.55;;;;;;;18.08;52.66;101373.94;4941422;29;20023;-87
2022/06/01 08:48:03;;;;;;;5.20;4.20;;;;;;;17.93;54.84;101368.25;4954460;29;20054;-87
2022/06/01 08:50:36;;;;;;;4.20;3.80;;;;;;;17.99;55.80;101372.97;4936263;29;20216;-87
2022/06/01 08:53:05;;;;;;;6.45;3.72;;;;;;;18.21;54.94;101368.22;4942488;28;20040;-87
2022/06/01 08:55:42;;;;;;;4.50;3.60;;;;;;;18.32;56.03;101368.00;4940068;28;20481;-86
2022/06/01 08:58:19;;;;;;;4.95;3.40;;;;;;;18.61;56.12;101373.97;4946451;29;20101;-86
2022/06/01 09:01:04;;;;;;;3.40;3.03;;;;;;;18.73;54.88;101367.44;4966482;28;20408;-87
2022/06/01 09:03:37;;;;;;;4.60;3.15;;;;;;;18.95;51.44;101370.63;4964505;28;20034;-88
2022/06/01 09:06:14;;;;;;;4.55;3.50;;;;;;;18.88;53.00;101377.56;4972199;28;20023;-88
2022/06/01 09:08:59;;;;;;;3.67;3.30;;;;;;;18.87;54.60;101382.06;4970601;28;20121;-87
2022/06/01 09:11:33;;;;;;;6.30;3.47;;;;;;;18.81;52.73;101376.50;4958288;28;20184;-88
2022/06/01 09:14:13;;;;;;;5.47;3.30;;;;;;;18.79;54.13;101379.31;4957914;28;20500;-88
2022/06/01 09:16:43;;;;;;;5.18;3.90;;;;;;;18.78;52.64;101370.47;4952661;28;20042;-87
2022/06/01 09:19:16;;;;;;;4.60;4.13;;;;;;;18.69;52.78;101378.56;4954865;28;20103;-87
2022/06/01 09:24:34;;;;;;;8.00;4.47;;;;;;;18.81;54.12;101377.31;4972286;28;20069;-87
2022/06/01 09:27:02;;;;;;;5.03;4.55;;;;;;;19.07;50.91;101377.38;4954175;28;20030;-86
2022/06/01 09:29:44;;;;;;;4.53;3.80;;;;;;;19.49;53.86;101376.66;4924077;28;20153;-86
2022/06/01 09:32:41;;;;;;;5.93;4.63;;;;;;;19.54;53.94;101387.72;4968878;28;20054;-86
2022/06/01 09:35:11;;;;;;;7.63;5.10;;;;;;;18.92;53.36;101389.59;4953660;28;20034;-87
2022/06/01 09:37:41;;;;;;;6.93;5.35;;;;;;;18.56;54.04;101388.75;4971093;28;20442;-86
2022/06/01 09:40:23;;;;;;;7.43;5.35;;;;;;;18.45;55.24;101397.81;4969584;28;20799;-87
2022/06/01 09:42:51;;;;;;;7.40;5.68;;;;;;;18.15;54.62;101394.47;4938575;29;20035;-86
2022/06/01 09:45:44;;;;;;;5.30;4.43;;;;;;;17.89;56.51;101397.97;4955394;28;20496;-88
2022/06/01 09:48:27;;;;;;;7.05;3.53;;;;;;;17.71;57.35;101395.28;4954755;28;20038;-88
2022/06/01 09:51:07;;;;;;;4.18;3.50;;;;;;;17.25;57.46;101391.59;4944568;28;20047;-88
2022/06/01 09:53:45;;;;;;;4.28;3.63;;;;;;;16.97;58.71;101395.97;4934737;29;20038;-88
2022/06/01 09:56:11;;;;;;;3.83;3.47;;;;;;;16.70;58.77;101401.13;4940507;28;20077;-88
2022/06/01 10:07:18;;;;;;;2.58;2.38;;;;;;;15.93;60.48;101438.94;4948072;28;20094;-88
2022/06/01 10:09:49;;;;;;;4.70;3.60;;;;;;;15.77;62.24;101447.41;4944276;28;20031;-88
2022/06/01 10:12:39;;;;;;;6.32;3.92;;;;;;;15.55;63.55;101444.88;4946350;28;20031;-89
2022/06/01 10:15:31;;;;;;;8.52;5.32;;;;;;;15.32;63.97;101466.25;4944046;28;20051;-88
2022/06/01 10:18:09;;;;;;;7.85;5.13;;;;;;;14.96;65.53;101464.84;4948629;28;20023;-87
2022/06/01 10:20:41;;;;;;;8.45;5.47;;;;;;;14.49;67.64;101471.38;4946900;28;20131;-88
2022/06/01 10:23:18;;;;;;;8.93;5.60;;;;;;;14.01;70.75;101462.84;4923642;29;20028;-84
2022/06/01 10:26:00;;;;;;;8.27;4.90;;;;;;;13.70;70.75;101456.44;4943625;28;20078;-84
2022/06/01 10:28:41;;;;;;;5.10;3.70;;;;;;;13.33;72.63;101450.47;4943499;28;20023;-87
2022/06/01 10:31:34;;;;;;;6.38;4.25;;;;;;;13.15;74.47;101461.44;4936800;28;20051;-87
2022/06/01 10:34:45;;;;;;;8.75;4.18;;;;;;;13.04;75.51;101458.75;4942333;28;20089;-88
2022/06/01 10:37:36;;;;;;;5.18;3.88;;;;;;;12.87;76.02;101456.53;4941539;28;20093;-89
2022/06/01 10:40:15;;;;;;;8.35;4.20;;;;;;;13.00;78.72;101451.19;4942209;28;20485;-90
2022/06/01 10:45:39;;;;;;;6.32;4.60;;;;;;;13.77;77.34;101442.63;4944606;28;20057;-93
2022/06/01 10:48:14;;;;;;;13.32;5.40;;;;;;;14.33;79.32;101455.81;4948751;29;20034;-93
2022/06/01 10:51:03;;;;;;;8.73;5.05;;;;;;;14.72;77.79;101453.59;4933723;29;20038;-95
2022/06/01 10:54:06;;;;;;;4.97;4.20;;;;;;;15.07;75.43;101455.16;4935747;29;20102;-94
2022/06/01 10:56:32;;;;;;;8.52;4.63;;;;;;;15.20;76.60;101455.81;4943495;29;20114;-95
2022/06/01 10:59:03;;;;;;;4.35;3.60;;;;;;;15.14;71.77;101459.81;4945552;29;20071;-93
2022/06/01 11:01:54;;;;;;;4.25;3.85;;;;;;;15.14;74.10;101454.50;4938340;28;20061;-93
2022/06/01 11:04:41;;;;;;;4.85;3.45;;;;;;;14.83;71.80;101450.94;4942442;29;20089;-96
2022/06/01 11:07:15;;;;;;;3.47;3.17;;;;;;;14.56;72.27;101461.94;4951298;29;20065;-92
2022/06/01 11:09:44;;;;;;;4.38;3.22;;;;;;;14.34;73.15;101457.50;4928873;29;20086;-93
2022/06/01 11:12:33;;;;;;;3.65;3.22;;;;;;;14.17;72.51;101450.06;4931546;29;20045;-92
2022/06/01 11:15:36;;;;;;;4.88;3.40;;;;;;;14.05;74.55;101456.34;4939462;29;20039;-89
2022/06/01 11:18:02;;;;;;;3.95;3.30;;;;;;;14.01;75.20;101452.25;4942355;28;20019;-91
2022/06/01 11:21:03;;;;;;;3.83;3.22;;;;;;;14.09;74.72;101452.50;4941042;28;20019;-92
2022/06/01 11:23:37;;;;;;;3.50;3.20;;;;;;;14.29;76.01;101449.09;4939398;28;20044;-92
2022/06/01 11:26:15;;;;;;;6.55;3.45;;;;;;;14.68;76.35;101450.34;4938983;28;20035;-91
2022/06/01 11:29:17;;;;;;;4.68;2.97;;;;;;;15.13;73.87;101446.69;4947175;28;20027;-95
2022/06/01 11:31:46;;;;;;;2.90;2.65;;;;;;;15.55;70.00;101458.13;4944391;28;20041;-91
2022/06/01 11:34:22;;;;;;;4.07;2.70;;;;;;;15.79;71.36;101457.91;4944929;28;20030;-92
2022/06/01 11:37:12;;;;;;;3.03;2.40;;;;;;;16.02;69.24;101462.06;4947788;28;20405;-90
2022/06/01 11:39:52;;;;;;;2.20;2.00;;;;;;;16.27;67.31;101458.91;4944812;28;20059;-89
2022/06/01 11:42:29;;;;;;;3.80;2.38;;;;;;;16.23;64.56;101468.13;4945529;28;20031;-90
2022/06/01 11:45:03;;;;;;;3.25;2.92;;;;;;;16.11;66.40;101471.03;4946107;28;20049;-88
2022/06/01 11:47:46;;;;;;;3.72;3.00;;;;;;;16.09;64.77;101471.16;4946128;28;20031;-89
2022/06/01 11:50:44;;;;;;;4.03;3.00;;;;;;;16.25;65.95;101471.50;4943418;28;20038;-88
2022/06/01 11:53:18;;;;;;;3.78;3.38;;;;;;;16.55;63.29;101467.94;4945598;28;20031;-88
2022/06/01 11:55:46;;;;;;;5.25;3.60;;;;;;;16.88;65.42;101461.44;4947668;28;20038;-88
2022/06/01 11:58:30;;;;;;;5.25;3.22;;;;;;;17.36;65.06;101462.41;4942307;28;20430;-88
2022/06/01 12:01:11;;;;;;;3.72;3.08;;;;;;;17.72;62.75;101447.50;4945602;28;20039;-82
2022/06/01 12:03:40;;;;;;;3.20;3.00;;;;;;;17.98;59.31;101447.69;4952612;28;20416;-83
2022/06/01 12:06:34;;;;;;;5.15;3.42;;;;;;;18.06;62.49;101451.31;4950337;28;20023;-82